Warrensburg, NY (12885)

8:45 PM EDT on March 30, 2015 (GMT -0400)
APRSWXNET | | Change Station
CLOSE
Current Station
Personal Weather Station
Location: Rockhurst, NY
Elevation: 295 ft
Nearby Weather Stations

Elev 295 ft 43.47 °N, 73.64 °W | Updated 30 minutes ago

Partly Cloudy
Partly Cloudy
38 °F
Feels Like 38 °F
N
1
Wind Variable Wind from SE
Gusts 5.0 mph

Today
High -- | Low -- °F
--% Chance of Precip.
Yesterday
High -- | Low -- °F
Precip. -- in
6:40 AM 7:19 PM
Waxing Gibbous, 83% visible
Pressure 29.74 in
Visibility 10.0 miles
Clouds Few 4700 ft
Windchill 38 °F
Dew Point 26 °F
Humidity 62%
Rainfall in
Snow Depth Not available.
UV 0 out of 12
Pollen 3.20 out of 12
Air Quality Not available.
Flu Activity Not available.
METAR KGFL 302353Z AUTO 26008KT 10SM FEW047 04/M03 A2972 RMK AO2 SLP070 T00441033 10067 20039 52012

More Conditions Fewer Conditions

Pressure 29.74 in
Visibility 10.0 miles
Clouds Few 4700 ft
Windchill 38 °F
Dew Point 26 °F
Humidity 62%
Rainfall in
Snow Depth Not available.
UV 0 out of 12
Pollen 3.20 out of 12
Air Quality Not available.
Flu Activity Not available.
METAR KGFL 302353Z AUTO 26008KT 10SM FEW047 04/M03 A2972 RMK AO2 SLP070 T00441033 10067 20039 52012

More Conditions Fewer Conditions

10-Day Weather Forecast

Almanac

Astronomy

Mar. 30, 2015 Rise Set
Actual Time
Civil Twilight
Nautical Twilight
Astronomical Twilight
Moon
Length of Visible Light
Length of Day
Tomorrow will be .
, % of the Moon is Illuminated

Today's Extremes

State Highs State Lows

Community

WunderPhotos

Upload Photos

1,809,638 photos uploaded!

WunderBlogs® & News

Nearby

Air Quality

  Air Quality AQ Index Pollutant
Not available.

Snow Depth

Station Depth Elevation

Earthquake Activity

City Distance Mag. Time & Date
Minimum magnitude displayed is 2.5.

Coastal Water Temperatures

Place Temperature

Stations

Nearby Weather Stations

Station Location Temp. Windchill Dew Point Humidity Wind Precip. Elev Updated Type